createdAt,value
2022-09-17T00:00:52.620Z,1.17
2022-09-17T00:03:19.166Z,1.20
2022-09-17T00:05:45.767Z,1.27
2022-09-17T00:08:15.111Z,1.58
2022-09-17T00:10:43.447Z,1.08
2022-09-17T00:13:10.970Z,1.02
2022-09-17T00:15:45.443Z,1.02
2022-09-17T00:18:13.259Z,1.50
2022-09-17T00:20:44.292Z,1.48
2022-09-17T00:23:12.299Z,1.42
2022-09-17T00:25:47.954Z,1.20
2022-09-17T00:28:15.184Z,1.35
2022-09-17T00:30:43.111Z,1.00
2022-09-17T00:33:12.204Z,1.17
2022-09-17T00:35:38.837Z,1.20
2022-09-17T00:38:05.335Z,0.95
2022-09-17T00:40:32.239Z,1.13
2022-09-17T00:42:58.845Z,1.40
2022-09-17T00:45:25.586Z,1.30
2022-09-17T00:47:58.764Z,1.63
2022-09-17T00:50:37.714Z,1.83
2022-09-17T00:53:11.575Z,1.40
2022-09-17T00:55:41.673Z,1.30
2022-09-17T00:58:11.567Z,2.47
2022-09-17T01:00:38.749Z,1.58
2022-09-17T01:03:05.572Z,1.20
2022-09-17T01:05:45.936Z,1.40
2022-09-17T01:08:49.133Z,0.98
2022-09-17T01:11:23.044Z,1.40
2022-09-17T01:14:22.186Z,1.30
2022-09-17T01:17:24.069Z,1.45
2022-09-17T01:20:03.032Z,1.33
2022-09-17T01:23:07.290Z,1.13
2022-09-17T01:25:51.860Z,1.15
2022-09-17T01:28:34.798Z,1.27
2022-09-17T01:31:12.853Z,1.10
2022-09-17T01:34:07.278Z,1.65
2022-09-17T01:36:45.571Z,1.58
2022-09-17T01:39:43.462Z,1.38
2022-09-17T01:42:20.729Z,1.67
2022-09-17T01:45:03.393Z,1.23
2022-09-17T01:47:35.778Z,1.30
2022-09-17T01:50:09.821Z,1.25
2022-09-17T01:52:38.163Z,1.48
2022-09-17T01:55:15.104Z,1.70
2022-09-17T01:57:46.958Z,1.17
2022-09-17T02:00:16.338Z,1.42
2022-09-17T02:02:50.870Z,1.23
2022-09-17T02:05:28.895Z,1.60
2022-09-17T02:08:02.492Z,1.27
2022-09-17T02:10:32.347Z,1.10
2022-09-17T02:13:03.225Z,1.50
2022-09-17T02:15:35.229Z,1.27
2022-09-17T02:18:13.455Z,1.58
2022-09-17T02:20:43.862Z,1.65
2022-09-17T02:23:17.241Z,1.58
2022-09-17T02:25:52.890Z,1.73
2022-09-17T02:28:31.919Z,1.70
2022-09-17T02:30:58.745Z,1.35
2022-09-17T02:33:25.948Z,1.38
2022-09-17T02:35:52.571Z,1.67
2022-09-17T02:38:26.993Z,1.40
2022-09-17T02:41:03.023Z,1.77
2022-09-17T02:43:57.106Z,1.95
2022-09-17T02:46:38.434Z,1.85
2022-09-17T02:49:42.961Z,1.30
2022-09-17T02:52:43.009Z,1.60
2022-09-17T02:55:13.067Z,2.10
2022-09-17T02:57:56.453Z,1.63
2022-09-17T03:00:23.332Z,1.60
2022-09-17T03:02:52.649Z,1.27
2022-09-17T03:05:20.718Z,1.60
2022-09-17T03:07:47.690Z,1.63
2022-09-17T03:10:14.301Z,3.85
2022-09-17T03:12:41.206Z,1.80
2022-09-17T03:15:08.553Z,1.30
2022-09-17T03:17:35.309Z,1.83
2022-09-17T03:20:01.954Z,2.33
2022-09-17T03:22:28.497Z,1.85
2022-09-17T03:24:55.008Z,2.03
2022-09-17T03:27:21.639Z,1.88
2022-09-17T03:29:48.181Z,1.80
2022-09-17T03:32:14.735Z,1.10
2022-09-17T03:34:41.374Z,1.55
2022-09-17T03:37:07.926Z,1.63
2022-09-17T03:39:34.426Z,1.52
2022-09-17T03:42:00.919Z,1.52
2022-09-17T03:44:27.490Z,1.58
2022-09-17T03:46:54.074Z,1.60
2022-09-17T03:49:20.631Z,1.73
2022-09-17T03:51:47.120Z,1.30
2022-09-17T03:54:13.647Z,1.60
2022-09-17T03:56:40.077Z,1.33
2022-09-17T03:59:06.931Z,1.48
2022-09-17T04:01:33.606Z,1.65
2022-09-17T04:04:00.412Z,1.88
2022-09-17T04:06:27.032Z,1.85
2022-09-17T04:08:53.688Z,1.42
2022-09-17T04:11:20.340Z,2.63
2022-09-17T04:13:46.931Z,1.70
2022-09-17T04:16:13.545Z,1.85
2022-09-17T04:18:40.110Z,1.35
2022-09-17T04:21:06.775Z,1.63
2022-09-17T04:23:33.354Z,1.42
2022-09-17T04:25:59.823Z,1.33
2022-09-17T04:28:26.581Z,1.80
2022-09-17T04:30:56.157Z,1.45
2022-09-17T04:33:22.678Z,1.50
2022-09-17T04:35:49.589Z,1.50
2022-09-17T04:38:18.656Z,1.30
2022-09-17T04:40:46.640Z,1.45
2022-09-17T04:43:13.835Z,1.20
2022-09-17T04:45:40.327Z,1.48
2022-09-17T04:48:07.095Z,2.10
2022-09-17T04:50:34.096Z,1.30
2022-09-17T04:53:00.557Z,1.73
2022-09-17T04:55:27.576Z,1.83
2022-09-17T04:57:54.235Z,1.17
2022-09-17T05:00:22.517Z,1.20
2022-09-17T05:02:50.792Z,0.88
2022-09-17T05:05:18.940Z,1.60
2022-09-17T05:07:45.640Z,1.67
2022-09-17T05:10:13.857Z,1.50
2022-09-17T05:12:40.394Z,1.55
2022-09-17T05:15:07.629Z,1.52
2022-09-17T05:17:34.130Z,1.63
2022-09-17T05:20:00.697Z,1.35
2022-09-17T05:22:27.246Z,1.92
2022-09-17T05:24:53.769Z,1.88
2022-09-17T05:27:20.349Z,1.23
2022-09-17T05:29:46.883Z,1.27
2022-09-17T05:32:13.390Z,1.30
2022-09-17T05:34:40.670Z,1.30
2022-09-17T05:37:10.615Z,1.83
2022-09-17T05:39:37.266Z,1.88
2022-09-17T05:42:03.926Z,1.30
2022-09-17T05:44:30.482Z,2.08
2022-09-17T05:46:57.124Z,1.95
2022-09-17T05:49:23.746Z,2.15
2022-09-17T05:51:51.949Z,1.80
2022-09-17T05:54:18.467Z,2.25
2022-09-17T05:56:44.927Z,2.20
2022-09-17T05:59:12.742Z,2.00
2022-09-17T06:01:39.288Z,2.20
2022-09-17T06:04:05.843Z,2.10
2022-09-17T06:06:32.864Z,2.50
2022-09-17T06:09:00.276Z,2.42
2022-09-17T06:11:26.754Z,2.55
2022-09-17T06:13:54.868Z,2.75
2022-09-17T06:16:22.983Z,3.05
2022-09-17T06:18:55.805Z,3.10
2022-09-17T06:21:23.115Z,3.55
2022-09-17T06:23:50.803Z,3.05
2022-09-17T06:26:17.452Z,3.50
2022-09-17T06:28:44.654Z,3.45
2022-09-17T06:31:12.359Z,4.32
2022-09-17T06:33:39.312Z,2.90
2022-09-17T06:36:13.161Z,3.40
2022-09-17T06:38:40.575Z,3.83
2022-09-17T06:41:07.110Z,2.95
2022-09-17T06:43:33.951Z,3.28
2022-09-17T06:46:02.570Z,3.05
2022-09-17T06:48:30.653Z,2.35
2022-09-17T06:51:02.060Z,3.67
2022-09-17T06:53:29.617Z,2.97
2022-09-17T06:56:05.300Z,3.13
2022-09-17T06:58:33.539Z,2.95
2022-09-17T07:01:01.447Z,3.40
2022-09-17T07:03:30.117Z,2.55
2022-09-17T07:05:57.241Z,3.38
2022-09-17T07:08:24.156Z,2.70
2022-09-17T07:10:50.791Z,5.40
2022-09-17T07:13:17.769Z,2.97
2022-09-17T07:15:44.550Z,2.47
2022-09-17T07:18:12.074Z,2.35
2022-09-17T07:20:39.429Z,2.45
2022-09-17T07:23:06.064Z,2.20
2022-09-17T07:25:32.614Z,2.15
2022-09-17T07:27:59.863Z,2.30
2022-09-17T07:30:26.791Z,2.63
2022-09-17T07:32:53.433Z,2.22
2022-09-17T07:35:20.081Z,2.28
2022-09-17T07:37:47.627Z,3.15
2022-09-17T07:40:14.329Z,2.25
2022-09-17T07:42:41.032Z,1.95
2022-09-17T07:45:07.959Z,2.33
2022-09-17T07:47:39.005Z,2.50
2022-09-17T07:50:06.797Z,2.00
2022-09-17T07:52:33.313Z,1.90
2022-09-17T07:54:59.819Z,3.00
2022-09-17T07:57:26.906Z,2.72
2022-09-17T07:59:53.408Z,2.50
2022-09-17T08:02:24.145Z,2.33
2022-09-17T08:04:51.121Z,2.40
2022-09-17T08:07:17.833Z,2.20
2022-09-17T08:09:44.705Z,1.92
2022-09-17T08:12:11.447Z,1.77
2022-09-17T08:14:38.760Z,2.22
2022-09-17T08:17:08.162Z,2.15
2022-09-17T08:19:34.706Z,2.30
2022-09-17T08:22:01.310Z,2.45
2022-09-17T08:24:27.973Z,2.45
2022-09-17T08:26:54.627Z,2.13
2022-09-17T08:29:21.141Z,2.30
2022-09-17T08:31:47.720Z,2.38
2022-09-17T08:34:14.517Z,2.85
2022-09-17T08:36:40.959Z,2.25
2022-09-17T08:39:08.175Z,1.85
2022-09-17T08:41:49.074Z,3.83
2022-09-17T08:44:24.520Z,1.83
2022-09-17T08:46:59.202Z,2.25
2022-09-17T08:49:40.530Z,1.88
2022-09-17T08:52:35.018Z,1.63
2022-09-17T08:55:13.571Z,2.15
2022-09-17T08:57:58.911Z,1.63
2022-09-17T09:00:25.732Z,2.13
2022-09-17T09:03:21.481Z,2.30
2022-09-17T09:05:49.677Z,2.05
2022-09-17T09:08:26.717Z,2.47
2022-09-17T09:10:55.956Z,2.10
2022-09-17T09:13:26.122Z,2.10
2022-09-17T09:16:00.185Z,2.08
2022-09-17T09:18:30.590Z,2.42
2022-09-17T09:21:29.030Z,1.80
2022-09-17T09:24:10.073Z,3.25
2022-09-17T09:26:45.019Z,2.15
2022-09-17T09:29:11.613Z,1.63
2022-09-17T09:32:00.550Z,2.40
2022-09-17T09:34:29.026Z,2.08
2022-09-17T09:37:26.115Z,1.98
2022-09-17T09:39:55.608Z,2.25
2022-09-17T09:42:33.934Z,1.88
2022-09-17T09:45:06.581Z,2.20
2022-09-17T09:47:43.909Z,1.63
2022-09-17T09:51:05.731Z,2.47
2022-09-17T09:54:04.688Z,2.15
2022-09-17T09:56:52.974Z,1.50
2022-09-17T09:59:19.880Z,1.80
2022-09-17T10:01:46.722Z,2.13
2022-09-17T10:04:20.119Z,1.85
2022-09-17T10:06:48.454Z,1.80
2022-09-17T10:09:17.932Z,1.30
2022-09-17T10:12:00.241Z,1.77
2022-09-17T10:14:29.744Z,2.10
2022-09-17T10:17:17.476Z,1.70
2022-09-17T10:19:45.616Z,1.70
2022-09-17T10:22:32.082Z,2.17
2022-09-17T10:24:59.912Z,1.60
2022-09-17T10:27:27.375Z,2.03
2022-09-17T10:30:14.729Z,1.30
2022-09-17T10:32:41.265Z,1.80
2022-09-17T10:35:16.877Z,2.22
2022-09-17T10:37:50.225Z,1.75
2022-09-17T10:40:19.690Z,1.65
2022-09-17T10:42:46.962Z,1.77
2022-09-17T10:45:43.801Z,1.95
2022-09-17T10:48:20.568Z,1.45
2022-09-17T10:50:52.456Z,2.08
2022-09-17T10:53:20.387Z,1.75
2022-09-17T10:55:52.379Z,1.73
2022-09-17T10:58:47.382Z,1.65
2022-09-17T11:01:36.655Z,1.98
2022-09-17T11:04:12.067Z,1.25
2022-09-17T11:06:59.795Z,1.75
2022-09-17T11:10:07.498Z,1.77
2022-09-17T11:12:58.691Z,2.53
2022-09-17T11:15:25.328Z,1.40
2022-09-17T11:18:18.603Z,1.20
2022-09-17T11:21:15.466Z,1.65
2022-09-17T11:24:02.881Z,1.65
2022-09-17T11:26:40.780Z,1.15
2022-09-17T11:29:38.373Z,1.85
2022-09-17T11:32:32.015Z,1.20
2022-09-17T11:35:12.069Z,0.85
2022-09-17T11:37:59.960Z,1.50
2022-09-17T11:40:40.130Z,1.23
2022-09-17T11:43:26.469Z,1.27
2022-09-17T11:46:05.228Z,1.00
2022-09-17T11:48:48.137Z,0.98
2022-09-17T11:51:20.677Z,1.10
2022-09-17T11:53:51.906Z,1.30
2022-09-17T11:56:26.705Z,0.73
2022-09-17T11:59:01.363Z,1.20
2022-09-17T12:01:31.970Z,0.95
2022-09-17T12:04:11.036Z,1.30
2022-09-17T12:06:47.306Z,1.13
2022-09-17T12:09:17.449Z,0.85
2022-09-17T12:12:01.875Z,1.50
2022-09-17T12:14:31.990Z,1.25
2022-09-17T12:17:00.479Z,1.50
2022-09-17T12:19:41.375Z,0.82
2022-09-17T12:22:15.830Z,0.73
2022-09-17T12:24:43.367Z,1.02
2022-09-17T12:27:19.689Z,1.25
2022-09-17T12:30:09.218Z,1.02
2022-09-17T12:33:03.304Z,0.98
2022-09-17T12:36:04.528Z,1.10
2022-09-17T12:38:53.783Z,1.05
2022-09-17T12:42:11.105Z,0.95
2022-09-17T12:44:48.189Z,0.90
2022-09-17T12:47:52.936Z,1.38
2022-09-17T12:50:40.816Z,1.00
2022-09-17T12:53:13.005Z,1.48
2022-09-17T12:55:46.266Z,1.00
2022-09-17T12:58:56.492Z,0.90
2022-09-17T13:01:41.350Z,0.80
2022-09-17T13:04:18.003Z,0.50
2022-09-17T13:07:10.644Z,0.60
2022-09-17T13:09:45.679Z,1.05
2022-09-17T13:12:25.129Z,0.95
2022-09-17T13:15:03.431Z,1.05
2022-09-17T13:17:40.831Z,0.80
2022-09-17T13:20:31.807Z,1.17
2022-09-17T13:22:58.516Z,1.00
2022-09-17T13:25:26.062Z,1.00
2022-09-17T13:28:07.131Z,1.42
2022-09-17T13:30:56.553Z,1.27
2022-09-17T13:33:52.335Z,1.38
2022-09-17T13:36:50.170Z,1.10
2022-09-17T13:39:52.047Z,1.33
2022-09-17T13:42:28.473Z,1.10
2022-09-17T13:45:16.432Z,1.10
2022-09-17T13:48:05.705Z,1.40
2022-09-17T13:50:40.230Z,1.13
2022-09-17T13:53:15.346Z,1.52
2022-09-17T13:55:49.437Z,1.38
2022-09-17T13:58:18.965Z,1.10
2022-09-17T14:01:10.612Z,0.98
2022-09-17T14:03:46.644Z,1.23
2022-09-17T14:06:18.123Z,0.70
2022-09-17T14:08:44.690Z,0.90
2022-09-17T14:11:23.573Z,1.15
2022-09-17T14:14:05.197Z,0.82
2022-09-17T14:16:40.983Z,1.42
2022-09-17T14:19:51.108Z,1.25
2022-09-17T14:22:24.975Z,1.20
2022-09-17T14:24:55.789Z,0.98
2022-09-17T14:27:31.346Z,1.02
2022-09-17T14:30:21.671Z,0.70
2022-09-17T14:33:08.138Z,0.80
2022-09-17T14:35:38.696Z,0.77
2022-09-17T14:38:16.243Z,0.50
2022-09-17T14:40:48.460Z,1.00
2022-09-17T14:43:45.302Z,0.68
2022-09-17T14:46:20.432Z,0.70
2022-09-17T14:48:47.323Z,0.60
2022-09-17T14:51:19.913Z,0.43
2022-09-17T14:54:09.626Z,0.40
2022-09-17T14:56:43.155Z,0.50
2022-09-17T14:59:36.050Z,0.32
2022-09-17T15:02:05.391Z,0.38
2022-09-17T15:04:32.441Z,0.20
2022-09-17T15:07:10.016Z,0.30
2022-09-17T15:09:36.580Z,0.40
2022-09-17T15:12:03.952Z,0.40
2022-09-17T15:14:35.145Z,0.28
2022-09-17T15:17:03.189Z,0.50
2022-09-17T15:19:36.660Z,0.40
2022-09-17T15:22:09.704Z,0.40
2022-09-17T15:24:44.964Z,0.40
2022-09-17T15:27:22.282Z,0.40
2022-09-17T15:29:52.114Z,0.60
2022-09-17T15:32:18.702Z,0.40
2022-09-17T15:34:45.265Z,0.45
2022-09-17T15:37:20.768Z,0.55
2022-09-17T15:39:52.138Z,0.43
2022-09-17T15:42:26.428Z,0.40
2022-09-17T15:44:53.515Z,0.60
2022-09-17T15:47:50.320Z,0.50
2022-09-17T15:50:20.749Z,0.50
2022-09-17T15:52:47.977Z,0.50
2022-09-17T15:55:32.582Z,0.45
2022-09-17T15:58:00.249Z,0.40
2022-09-17T16:00:27.110Z,0.40
2022-09-17T16:02:54.281Z,0.40
2022-09-17T16:05:23.451Z,0.55
2022-09-17T16:07:50.042Z,0.60
2022-09-17T16:10:16.611Z,0.40
2022-09-17T16:12:43.985Z,0.63
2022-09-17T16:15:12.970Z,0.68
2022-09-17T16:17:47.490Z,0.70
2022-09-17T16:20:22.007Z,1.27
2022-09-17T16:22:48.544Z,0.52
2022-09-17T16:25:15.873Z,0.70
2022-09-17T16:27:51.986Z,0.55
2022-09-17T16:30:21.103Z,0.40
2022-09-17T16:32:47.864Z,0.77
2022-09-17T16:35:17.590Z,1.13
2022-09-17T16:37:45.049Z,0.50
2022-09-17T16:40:12.981Z,0.50
2022-09-17T16:42:40.128Z,0.50
2022-09-17T16:45:07.939Z,0.60
2022-09-17T16:47:38.678Z,0.40
2022-09-17T16:50:07.673Z,0.93
2022-09-17T16:52:35.225Z,0.50
2022-09-17T16:55:02.249Z,0.55
2022-09-17T16:57:30.689Z,0.60
2022-09-17T16:59:57.248Z,0.60
2022-09-17T17:02:23.764Z,0.70
2022-09-17T17:04:50.436Z,0.60
2022-09-17T17:07:16.904Z,1.15
2022-09-17T17:09:43.436Z,0.85
2022-09-17T17:12:10.036Z,0.50
2022-09-17T17:14:36.632Z,0.80
2022-09-17T17:17:03.516Z,0.50
2022-09-17T17:19:31.047Z,0.75
2022-09-17T17:21:57.586Z,0.60
2022-09-17T17:24:24.082Z,0.63
2022-09-17T17:26:50.710Z,0.95
2022-09-17T17:29:17.206Z,0.70
2022-09-17T17:31:43.837Z,0.63
2022-09-17T17:34:10.719Z,0.60
2022-09-17T17:36:37.196Z,0.73
2022-09-17T17:39:04.014Z,0.82
2022-09-17T17:41:30.485Z,0.43
2022-09-17T17:43:57.736Z,0.95
2022-09-17T17:46:24.764Z,0.80
2022-09-17T17:48:51.584Z,0.50
2022-09-17T17:51:19.379Z,0.80
2022-09-17T17:53:45.992Z,0.70
2022-09-17T17:56:13.133Z,0.70
2022-09-17T17:58:40.286Z,0.68
2022-09-17T18:01:15.773Z,0.93
2022-09-17T18:03:42.402Z,0.70
2022-09-17T18:06:09.157Z,1.00
2022-09-17T18:08:39.963Z,0.35
2022-09-17T18:11:08.418Z,0.70
2022-09-17T18:13:39.500Z,0.65
2022-09-17T18:16:07.741Z,0.95
2022-09-17T18:18:45.317Z,0.70
2022-09-17T18:21:17.867Z,0.60
2022-09-17T18:23:44.955Z,0.50
2022-09-17T18:26:16.823Z,0.63
2022-09-17T18:28:43.577Z,0.85
2022-09-17T18:31:23.895Z,0.70
2022-09-17T18:33:55.344Z,0.75
2022-09-17T18:36:21.792Z,1.50
2022-09-17T18:38:48.256Z,0.80
2022-09-17T18:41:14.920Z,0.57
2022-09-17T18:43:41.684Z,0.80
2022-09-17T18:46:09.672Z,0.75
2022-09-17T18:48:36.856Z,0.68
2022-09-17T18:51:08.593Z,0.63
2022-09-17T18:53:36.939Z,0.88
2022-09-17T18:56:25.036Z,0.50
2022-09-17T18:58:55.130Z,0.85
2022-09-17T19:01:27.289Z,0.73
2022-09-17T19:03:54.732Z,0.90
2022-09-17T19:06:21.700Z,1.17
2022-09-17T19:08:48.179Z,1.38
2022-09-17T19:11:14.682Z,0.43
2022-09-17T19:13:43.556Z,0.70
2022-09-17T19:16:11.968Z,0.80
2022-09-17T19:18:38.577Z,0.57
2022-09-17T19:21:07.592Z,0.77
2022-09-17T19:23:34.222Z,0.70
2022-09-17T19:26:12.663Z,0.80
2022-09-17T19:28:39.126Z,0.90
2022-09-17T19:31:10.390Z,1.00
2022-09-17T19:33:36.975Z,0.63
2022-09-17T19:36:10.053Z,0.90
2022-09-17T19:38:37.142Z,0.90
2022-09-17T19:41:09.546Z,0.82
2022-09-17T19:43:36.321Z,0.90
2022-09-17T19:46:13.984Z,0.60
2022-09-17T19:48:48.580Z,0.70
2022-09-17T19:51:15.882Z,0.57
2022-09-17T19:53:42.616Z,0.60
2022-09-17T19:56:13.693Z,0.80
2022-09-17T19:58:40.687Z,1.15
2022-09-17T20:01:07.267Z,1.13
2022-09-17T20:03:33.927Z,1.00
2022-09-17T20:06:02.484Z,0.70
2022-09-17T20:08:29.209Z,1.10
2022-09-17T20:10:55.946Z,0.90
2022-09-17T20:13:23.197Z,1.05
2022-09-17T20:15:49.841Z,0.88
2022-09-17T20:18:21.138Z,0.75
2022-09-17T20:20:50.208Z,1.00
2022-09-17T20:23:16.712Z,1.10
2022-09-17T20:25:45.836Z,1.00
2022-09-17T20:28:12.359Z,0.95
2022-09-17T20:30:38.838Z,1.20
2022-09-17T20:33:05.304Z,1.10
2022-09-17T20:35:31.906Z,0.80
2022-09-17T20:40:45.182Z,1.33
2022-09-17T20:43:11.749Z,1.20
2022-09-17T20:45:38.257Z,1.27
2022-09-17T20:48:07.416Z,0.93
2022-09-17T20:50:34.102Z,1.27
2022-09-17T20:53:00.592Z,1.40
2022-09-17T20:55:27.028Z,1.05
2022-09-17T20:57:54.135Z,1.30
2022-09-17T21:00:21.683Z,1.00
2022-09-17T21:02:54.275Z,1.27
2022-09-17T21:05:20.841Z,1.35
2022-09-17T21:07:47.386Z,1.00
2022-09-17T21:10:14.262Z,1.20
2022-09-17T21:12:40.801Z,1.23
2022-09-17T21:15:07.736Z,1.73
2022-09-17T21:17:34.816Z,1.15
2022-09-17T21:20:01.465Z,1.50
2022-09-17T21:22:28.060Z,1.38
2022-09-17T21:24:54.523Z,1.70
2022-09-17T21:27:20.979Z,1.40
2022-09-17T21:29:47.465Z,1.65
2022-09-17T21:32:14.036Z,1.60
2022-09-17T21:34:40.568Z,1.50
2022-09-17T21:37:07.012Z,1.38
2022-09-17T21:39:35.660Z,1.55
2022-09-17T21:42:02.241Z,1.25
2022-09-17T21:44:28.836Z,1.02
2022-09-17T21:46:57.732Z,1.17
2022-09-17T21:49:25.095Z,1.20
2022-09-17T21:51:51.745Z,1.25
2022-09-17T21:54:18.405Z,1.20
2022-09-17T21:56:45.847Z,1.10
2022-09-17T21:59:14.396Z,1.10
2022-09-17T22:01:45.731Z,1.55
2022-09-17T22:04:16.266Z,1.50
2022-09-17T22:06:43.742Z,1.13
2022-09-17T22:09:22.378Z,1.27
2022-09-17T22:11:49.390Z,1.20
2022-09-17T22:14:19.756Z,0.98
2022-09-17T22:16:48.955Z,1.15
2022-09-17T22:19:17.188Z,1.20
2022-09-17T22:21:47.368Z,1.35
2022-09-17T22:24:16.138Z,1.00
2022-09-17T22:26:44.742Z,1.38
2022-09-17T22:29:19.264Z,1.40
2022-09-17T22:31:47.782Z,1.63
2022-09-17T22:34:17.350Z,1.20
2022-09-17T22:36:45.766Z,1.38
2022-09-17T22:39:12.338Z,1.13
2022-09-17T22:41:45.938Z,1.45
2022-09-17T22:44:21.615Z,1.10
2022-09-17T22:46:50.148Z,1.40
2022-09-17T22:49:17.015Z,1.30
2022-09-17T22:51:45.000Z,1.50
2022-09-17T22:54:12.539Z,1.27
2022-09-17T22:56:39.345Z,1.52
2022-09-17T22:59:05.943Z,1.70
2022-09-17T23:01:34.069Z,1.35
2022-09-17T23:04:01.117Z,1.38
2022-09-17T23:06:29.722Z,1.33
2022-09-17T23:08:56.629Z,1.20
2022-09-17T23:11:25.949Z,1.40
2022-09-17T23:13:52.908Z,1.17
2022-09-17T23:16:20.066Z,1.30
2022-09-17T23:18:46.674Z,0.98
2022-09-17T23:21:15.377Z,1.10
2022-09-17T23:23:43.603Z,1.52
2022-09-17T23:26:15.059Z,1.13
2022-09-17T23:28:41.914Z,1.27
2022-09-17T23:31:12.416Z,1.50
2022-09-17T23:33:39.188Z,1.30
2022-09-17T23:36:13.447Z,1.00
2022-09-17T23:38:45.363Z,1.38
2022-09-17T23:41:27.105Z,1.35
2022-09-17T23:43:55.893Z,1.10
2022-09-17T23:46:23.900Z,1.10
2022-09-17T23:48:54.239Z,1.13
2022-09-17T23:51:22.101Z,1.27
2022-09-17T23:53:48.826Z,1.10
2022-09-17T23:56:18.876Z,1.25
2022-09-17T23:58:45.480Z,1.60
